sensor_id;sensor_type;location;lat;lon;timestamp;pressure;altitude;pressure_sealevel;temperature;humidity
64294;BME280;50636;45.596;5.258;2023-03-14T00:01:18;97705.38;;;11.54;100.00
64294;BME280;50636;45.596;5.258;2023-03-14T00:03:47;97707.09;;;11.60;100.00
64294;BME280;50636;45.596;5.258;2023-03-14T00:06:14;97701.84;;;11.60;100.00
64294;BME280;50636;45.596;5.258;2023-03-14T00:08:46;97700.56;;;11.51;100.00
64294;BME280;50636;45.596;5.258;2023-03-14T00:11:17;97709.59;;;11.55;100.00
64294;BME280;50636;45.596;5.258;2023-03-14T00:14:11;97707.56;;;11.57;100.00
64294;BME280;50636;45.596;5.258;2023-03-14T00:16:39;97716.91;;;11.53;100.00
64294;BME280;50636;45.596;5.258;2023-03-14T00:19:20;97728.47;;;11.52;100.00
64294;BME280;50636;45.596;5.258;2023-03-14T00:21:48;97730.88;;;11.53;100.00
64294;BME280;50636;45.596;5.258;2023-03-14T00:24:15;97734.50;;;11.52;100.00
64294;BME280;50636;45.596;5.258;2023-03-14T00:26:41;97730.19;;;11.58;100.00
64294;BME280;50636;45.596;5.258;2023-03-14T00:29:08;97737.84;;;11.59;100.00
64294;BME280;50636;45.596;5.258;2023-03-14T00:31:35;97722.16;;;11.53;99.60
64294;BME280;50636;45.596;5.258;2023-03-14T00:34:02;97725.84;;;11.52;98.35
64294;BME280;50636;45.596;5.258;2023-03-14T00:36:29;97703.22;;;11.51;97.28
64294;BME280;50636;45.596;5.258;2023-03-14T00:38:56;97714.97;;;11.60;97.47
64294;BME280;50636;45.596;5.258;2023-03-14T00:41:23;97733.16;;;11.62;97.34
64294;BME280;50636;45.596;5.258;2023-03-14T00:43:57;97735.78;;;11.62;96.74
64294;BME280;50636;45.596;5.258;2023-03-14T00:46:25;97743.09;;;11.59;95.57
64294;BME280;50636;45.596;5.258;2023-03-14T00:49:01;97748.56;;;11.58;95.76
64294;BME280;50636;45.596;5.258;2023-03-14T00:51:26;97750.75;;;11.61;96.58
64294;BME280;50636;45.596;5.258;2023-03-14T00:54:08;97756.66;;;11.68;97.16
64294;BME280;50636;45.596;5.258;2023-03-14T00:56:34;97757.69;;;11.79;98.11
64294;BME280;50636;45.596;5.258;2023-03-14T00:59:01;97759.41;;;11.85;97.95
64294;BME280;50636;45.596;5.258;2023-03-14T01:01:47;97773.72;;;11.89;98.01
64294;BME280;50636;45.596;5.258;2023-03-14T01:04:29;97781.91;;;12.05;98.03
64294;BME280;50636;45.596;5.258;2023-03-14T01:06:57;97777.75;;;12.21;97.07
64294;BME280;50636;45.596;5.258;2023-03-14T01:09:24;97769.50;;;12.29;95.12
64294;BME280;50636;45.596;5.258;2023-03-14T01:11:51;97770.41;;;12.34;94.34
64294;BME280;50636;45.596;5.258;2023-03-14T01:14:18;97763.41;;;12.40;94.33
64294;BME280;50636;45.596;5.258;2023-03-14T01:16:44;97768.44;;;12.42;93.26
64294;BME280;50636;45.596;5.258;2023-03-14T01:19:11;97767.41;;;12.43;93.32
64294;BME280;50636;45.596;5.258;2023-03-14T01:21:38;97759.28;;;12.44;92.93
64294;BME280;50636;45.596;5.258;2023-03-14T01:24:06;97746.81;;;12.39;93.17
64294;BME280;50636;45.596;5.258;2023-03-14T01:26:34;97730.22;;;12.39;93.69
64294;BME280;50636;45.596;5.258;2023-03-14T01:29:02;97713.97;;;12.42;93.68
64294;BME280;50636;45.596;5.258;2023-03-14T01:31:30;97707.84;;;12.53;93.52
64294;BME280;50636;45.596;5.258;2023-03-14T01:33:57;97711.59;;;12.57;92.72
64294;BME280;50636;45.596;5.258;2023-03-14T01:36:23;97701.16;;;12.63;92.35
64294;BME280;50636;45.596;5.258;2023-03-14T01:38:50;97699.81;;;12.60;91.68
64294;BME280;50636;45.596;5.258;2023-03-14T01:41:22;97707.38;;;12.56;90.81
64294;BME280;50636;45.596;5.258;2023-03-14T01:43:50;97700.75;;;12.54;90.79
64294;BME280;50636;45.596;5.258;2023-03-14T01:46:42;97702.56;;;12.53;90.81
64294;BME280;50636;45.596;5.258;2023-03-14T01:49:32;97708.56;;;12.49;88.49
64294;BME280;50636;45.596;5.258;2023-03-14T01:52:29;97713.50;;;12.45;88.49
64294;BME280;50636;45.596;5.258;2023-03-14T01:55:09;97714.75;;;12.43;87.73
64294;BME280;50636;45.596;5.258;2023-03-14T01:57:45;97725.63;;;12.46;87.64
64294;BME280;50636;45.596;5.258;2023-03-14T02:00:52;97716.22;;;12.50;87.15
64294;BME280;50636;45.596;5.258;2023-03-14T02:03:21;97703.47;;;12.59;86.94
64294;BME280;50636;45.596;5.258;2023-03-14T02:05:51;97702.91;;;12.57;85.83
64294;BME280;50636;45.596;5.258;2023-03-14T02:08:22;97703.13;;;12.55;84.62
64294;BME280;50636;45.596;5.258;2023-03-14T02:10:51;97693.66;;;12.54;84.46
64294;BME280;50636;45.596;5.258;2023-03-14T02:13:19;97689.50;;;12.58;83.85
64294;BME280;50636;45.596;5.258;2023-03-14T02:15:48;97690.78;;;12.56;80.20
64294;BME280;50636;45.596;5.258;2023-03-14T02:18:16;97697.81;;;12.50;80.11
64294;BME280;50636;45.596;5.258;2023-03-14T02:21:47;97699.78;;;12.43;80.76
64294;BME280;50636;45.596;5.258;2023-03-14T02:26:22;97681.34;;;12.43;79.07
64294;BME280;50636;45.596;5.258;2023-03-14T02:28:51;97684.09;;;12.48;79.50
64294;BME280;50636;45.596;5.258;2023-03-14T02:31:20;97673.56;;;12.48;78.89
64294;BME280;50636;45.596;5.258;2023-03-14T02:33:49;97672.19;;;12.46;78.00
64294;BME280;50636;45.596;5.258;2023-03-14T02:36:19;97667.16;;;12.44;78.44
64294;BME280;50636;45.596;5.258;2023-03-14T02:38:55;97639.81;;;12.45;77.60
64294;BME280;50636;45.596;5.258;2023-03-14T02:41:30;97641.75;;;12.50;75.46
64294;BME280;50636;45.596;5.258;2023-03-14T02:43:57;97633.13;;;12.54;75.63
64294;BME280;50636;45.596;5.258;2023-03-14T02:46:25;97641.03;;;12.54;76.84
64294;BME280;50636;45.596;5.258;2023-03-14T02:49:02;97647.00;;;12.50;75.08
64294;BME280;50636;45.596;5.258;2023-03-14T02:51:33;97649.78;;;12.43;73.64
64294;BME280;50636;45.596;5.258;2023-03-14T02:54:00;97646.28;;;12.37;75.06
64294;BME280;50636;45.596;5.258;2023-03-14T02:56:26;97653.03;;;12.33;76.67
64294;BME280;50636;45.596;5.258;2023-03-14T02:58:53;97635.44;;;12.34;71.53
64294;BME280;50636;45.596;5.258;2023-03-14T03:01:19;97627.38;;;12.24;72.51
64294;BME280;50636;45.596;5.258;2023-03-14T03:03:46;97627.19;;;12.13;71.84
64294;BME280;50636;45.596;5.258;2023-03-14T03:06:13;97618.22;;;11.97;71.93
64294;BME280;50636;45.596;5.258;2023-03-14T03:08:41;97610.34;;;11.86;72.55
64294;BME280;50636;45.596;5.258;2023-03-14T03:11:08;97603.06;;;11.76;72.53
64294;BME280;50636;45.596;5.258;2023-03-14T03:13:34;97602.31;;;11.64;71.59
64294;BME280;50636;45.596;5.258;2023-03-14T03:16:02;97588.28;;;11.58;71.30
64294;BME280;50636;45.596;5.258;2023-03-14T03:18:29;97583.91;;;11.64;70.03
64294;BME280;50636;45.596;5.258;2023-03-14T03:21:00;97589.19;;;11.64;71.58
64294;BME280;50636;45.596;5.258;2023-03-14T03:23:27;97583.22;;;11.68;72.30
64294;BME280;50636;45.596;5.258;2023-03-14T03:25:55;97584.34;;;11.72;70.45
64294;BME280;50636;45.596;5.258;2023-03-14T03:28:23;97593.69;;;11.80;68.50
64294;BME280;50636;45.596;5.258;2023-03-14T03:30:49;97598.22;;;11.85;69.66
64294;BME280;50636;45.596;5.258;2023-03-14T03:33:16;97593.91;;;11.90;68.77
64294;BME280;50636;45.596;5.258;2023-03-14T03:35:49;97582.09;;;11.93;68.30
64294;BME280;50636;45.596;5.258;2023-03-14T03:38:16;97570.91;;;11.97;68.35
64294;BME280;50636;45.596;5.258;2023-03-14T03:40:43;97564.69;;;12.04;67.36
64294;BME280;50636;45.596;5.258;2023-03-14T03:43:10;97565.31;;;12.11;68.05
64294;BME280;50636;45.596;5.258;2023-03-14T03:45:37;97566.19;;;12.16;66.96
64294;BME280;50636;45.596;5.258;2023-03-14T03:48:04;97557.84;;;12.19;66.51
64294;BME280;50636;45.596;5.258;2023-03-14T03:50:33;97561.03;;;12.22;66.15
64294;BME280;50636;45.596;5.258;2023-03-14T03:53:00;97556.16;;;12.30;65.35
64294;BME280;50636;45.596;5.258;2023-03-14T03:55:29;97538.78;;;12.29;64.39
64294;BME280;50636;45.596;5.258;2023-03-14T03:57:57;97532.50;;;12.30;66.52
64294;BME280;50636;45.596;5.258;2023-03-14T04:00:24;97531.84;;;12.40;65.24
64294;BME280;50636;45.596;5.258;2023-03-14T04:02:52;97521.94;;;12.47;65.58
64294;BME280;50636;45.596;5.258;2023-03-14T04:05:18;97517.31;;;12.54;65.34
64294;BME280;50636;45.596;5.258;2023-03-14T04:07:45;97498.59;;;12.51;65.87
64294;BME280;50636;45.596;5.258;2023-03-14T04:10:12;97493.09;;;12.52;65.55
64294;BME280;50636;45.596;5.258;2023-03-14T04:12:39;97491.56;;;12.56;64.29
64294;BME280;50636;45.596;5.258;2023-03-14T04:15:07;97486.78;;;12.53;64.16
64294;BME280;50636;45.596;5.258;2023-03-14T04:17:35;97491.81;;;12.55;63.69
64294;BME280;50636;45.596;5.258;2023-03-14T04:20:01;97486.22;;;12.51;64.86
64294;BME280;50636;45.596;5.258;2023-03-14T04:22:32;97461.50;;;12.52;63.94
64294;BME280;50636;45.596;5.258;2023-03-14T04:24:59;97469.41;;;12.52;64.94
64294;BME280;50636;45.596;5.258;2023-03-14T04:27:26;97465.97;;;12.52;64.07
64294;BME280;50636;45.596;5.258;2023-03-14T04:29:54;97455.13;;;12.48;64.59
64294;BME280;50636;45.596;5.258;2023-03-14T04:32:20;97455.31;;;12.42;64.41
64294;BME280;50636;45.596;5.258;2023-03-14T04:34:47;97455.41;;;12.30;66.42
64294;BME280;50636;45.596;5.258;2023-03-14T04:37:14;97436.50;;;12.33;67.21
64294;BME280;50636;45.596;5.258;2023-03-14T04:39:41;97447.06;;;12.16;67.39
64294;BME280;50636;45.596;5.258;2023-03-14T04:42:08;97438.19;;;11.88;67.44
64294;BME280;50636;45.596;5.258;2023-03-14T04:44:36;97444.41;;;11.82;67.62
64294;BME280;50636;45.596;5.258;2023-03-14T04:47:03;97467.75;;;11.78;67.15
64294;BME280;50636;45.596;5.258;2023-03-14T04:49:30;97424.78;;;11.73;69.17
64294;BME280;50636;45.596;5.258;2023-03-14T04:51:57;97432.53;;;11.63;71.06
64294;BME280;50636;45.596;5.258;2023-03-14T04:54:25;97443.41;;;11.37;71.78
64294;BME280;50636;45.596;5.258;2023-03-14T04:56:55;97450.03;;;11.11;74.47
64294;BME280;50636;45.596;5.258;2023-03-14T04:59:21;97448.94;;;10.95;76.18
64294;BME280;50636;45.596;5.258;2023-03-14T05:01:50;97441.09;;;10.84;77.26
64294;BME280;50636;45.596;5.258;2023-03-14T05:04:18;97445.66;;;10.76;78.54
64294;BME280;50636;45.596;5.258;2023-03-14T05:06:44;97449.69;;;10.67;79.60
64294;BME280;50636;45.596;5.258;2023-03-14T05:09:11;97441.94;;;10.61;81.23
64294;BME280;50636;45.596;5.258;2023-03-14T05:11:38;97440.00;;;10.56;81.97
64294;BME280;50636;45.596;5.258;2023-03-14T05:14:05;97439.69;;;10.52;82.34
64294;BME280;50636;45.596;5.258;2023-03-14T05:16:32;97431.69;;;10.47;83.03
64294;BME280;50636;45.596;5.258;2023-03-14T05:18:59;97418.00;;;10.45;84.00
64294;BME280;50636;45.596;5.258;2023-03-14T05:21:27;97422.34;;;10.51;82.61
64294;BME280;50636;45.596;5.258;2023-03-14T05:23:54;97429.06;;;10.59;82.72
64294;BME280;50636;45.596;5.258;2023-03-14T05:26:21;97419.69;;;10.63;81.74
64294;BME280;50636;45.596;5.258;2023-03-14T05:28:48;97418.41;;;10.66;80.34
64294;BME280;50636;45.596;5.258;2023-03-14T05:31:15;97425.59;;;10.70;81.70
64294;BME280;50636;45.596;5.258;2023-03-14T05:33:42;97434.84;;;10.73;80.10
64294;BME280;50636;45.596;5.258;2023-03-14T05:36:10;97417.09;;;10.51;81.14
64294;BME280;50636;45.596;5.258;2023-03-14T05:38:37;97426.78;;;10.27;82.58
64294;BME280;50636;45.596;5.258;2023-03-14T05:41:04;97417.69;;;10.06;84.80
64294;BME280;50636;45.596;5.258;2023-03-14T05:43:32;97403.31;;;9.97;85.67
64294;BME280;50636;45.596;5.258;2023-03-14T05:45:58;97410.59;;;9.95;84.22
64294;BME280;50636;45.596;5.258;2023-03-14T05:48:28;97418.09;;;9.91;84.50
64294;BME280;50636;45.596;5.258;2023-03-14T05:50:56;97408.31;;;9.87;84.73
64294;BME280;50636;45.596;5.258;2023-03-14T05:53:24;97419.94;;;9.79;86.51
64294;BME280;50636;45.596;5.258;2023-03-14T05:55:55;97415.72;;;9.78;85.22
64294;BME280;50636;45.596;5.258;2023-03-14T05:58:22;97420.06;;;9.84;86.65
64294;BME280;50636;45.596;5.258;2023-03-14T06:00:49;97424.50;;;9.95;85.57
64294;BME280;50636;45.596;5.258;2023-03-14T06:03:21;97380.72;;;10.08;83.81
64294;BME280;50636;45.596;5.258;2023-03-14T06:05:50;97411.41;;;10.19;82.37
64294;BME280;50636;45.596;5.258;2023-03-14T06:08:17;97408.91;;;10.24;82.08
64294;BME280;50636;45.596;5.258;2023-03-14T06:10:44;97395.56;;;10.37;81.18
64294;BME280;50636;45.596;5.258;2023-03-14T06:13:11;97387.56;;;10.44;79.32
64294;BME280;50636;45.596;5.258;2023-03-14T06:15:39;97388.13;;;10.46;78.43
64294;BME280;50636;45.596;5.258;2023-03-14T06:18:07;97389.94;;;10.46;78.22
64294;BME280;50636;45.596;5.258;2023-03-14T06:20:37;97426.00;;;10.50;77.35
64294;BME280;50636;45.596;5.258;2023-03-14T06:23:08;97394.72;;;10.61;75.99
64294;BME280;50636;45.596;5.258;2023-03-14T06:25:35;97404.50;;;10.65;75.58
64294;BME280;50636;45.596;5.258;2023-03-14T06:28:05;97412.84;;;10.62;76.05
64294;BME280;50636;45.596;5.258;2023-03-14T06:30:32;97424.53;;;10.43;78.99
64294;BME280;50636;45.596;5.258;2023-03-14T06:33:00;97397.53;;;10.30;79.51
64294;BME280;50636;45.596;5.258;2023-03-14T06:35:30;97443.06;;;10.17;81.04
64294;BME280;50636;45.596;5.258;2023-03-14T06:37:59;97436.94;;;10.00;81.56
64294;BME280;50636;45.596;5.258;2023-03-14T06:40:27;97420.50;;;9.93;81.49
64294;BME280;50636;45.596;5.258;2023-03-14T06:42:54;97442.81;;;9.84;81.88
64294;BME280;50636;45.596;5.258;2023-03-14T06:45:20;97477.47;;;9.74;83.76
64294;BME280;50636;45.596;5.258;2023-03-14T06:47:50;97456.25;;;9.75;82.46
64294;BME280;50636;45.596;5.258;2023-03-14T06:50:18;97469.03;;;9.72;82.78
64294;BME280;50636;45.596;5.258;2023-03-14T06:52:45;97480.94;;;9.68;84.80
64294;BME280;50636;45.596;5.258;2023-03-14T06:55:15;97486.63;;;9.53;86.52
64294;BME280;50636;45.596;5.258;2023-03-14T06:57:43;97508.19;;;9.36;87.34
64294;BME280;50636;45.596;5.258;2023-03-14T07:00:13;97523.03;;;9.24;89.02
64294;BME280;50636;45.596;5.258;2023-03-14T07:02:42;97514.25;;;9.18;90.36
64294;BME280;50636;45.596;5.258;2023-03-14T07:05:10;97505.25;;;9.14;91.88
64294;BME280;50636;45.596;5.258;2023-03-14T07:07:46;97518.75;;;9.11;92.67
64294;BME280;50636;45.596;5.258;2023-03-14T07:10:13;97555.63;;;9.10;93.27
64294;BME280;50636;45.596;5.258;2023-03-14T07:12:43;97540.84;;;9.15;94.28
64294;BME280;50636;45.596;5.258;2023-03-14T07:15:13;97566.31;;;9.08;94.42
64294;BME280;50636;45.596;5.258;2023-03-14T07:17:46;97580.78;;;9.11;94.79
64294;BME280;50636;45.596;5.258;2023-03-14T07:20:14;97571.19;;;9.05;95.00
64294;BME280;50636;45.596;5.258;2023-03-14T07:22:41;97594.22;;;8.96;96.19
64294;BME280;50636;45.596;5.258;2023-03-14T07:25:08;97577.16;;;8.93;97.42
64294;BME280;50636;45.596;5.258;2023-03-14T07:27:38;97594.44;;;8.94;98.27
64294;BME280;50636;45.596;5.258;2023-03-14T07:30:05;97611.97;;;8.94;98.88
64294;BME280;50636;45.596;5.258;2023-03-14T07:32:33;97590.88;;;8.89;98.65
64294;BME280;50636;45.596;5.258;2023-03-14T07:34:59;97610.22;;;8.88;99.64
64294;BME280;50636;45.596;5.258;2023-03-14T07:37:27;97615.44;;;8.88;100.00
64294;BME280;50636;45.596;5.258;2023-03-14T07:39:54;97628.94;;;8.85;100.00
64294;BME280;50636;45.596;5.258;2023-03-14T07:42:22;97627.13;;;8.85;100.00
64294;BME280;50636;45.596;5.258;2023-03-14T07:44:52;97623.28;;;8.88;100.00
64294;BME280;50636;45.596;5.258;2023-03-14T07:47:19;97626.25;;;8.91;100.00
64294;BME280;50636;45.596;5.258;2023-03-14T07:49:48;97631.66;;;8.96;100.00
64294;BME280;50636;45.596;5.258;2023-03-14T07:52:18;97635.81;;;9.04;100.00
64294;BME280;50636;45.596;5.258;2023-03-14T07:54:45;97643.59;;;9.11;100.00
64294;BME280;50636;45.596;5.258;2023-03-14T07:57:13;97643.81;;;9.09;100.00
64294;BME280;50636;45.596;5.258;2023-03-14T07:59:40;97640.97;;;9.11;100.00
64294;BME280;50636;45.596;5.258;2023-03-14T08:02:11;97639.16;;;9.11;100.00
64294;BME280;50636;45.596;5.258;2023-03-14T08:04:43;97649.84;;;9.10;100.00
64294;BME280;50636;45.596;5.258;2023-03-14T08:07:10;97669.34;;;9.14;100.00
64294;BME280;50636;45.596;5.258;2023-03-14T08:09:37;97658.28;;;9.12;100.00
64294;BME280;50636;45.596;5.258;2023-03-14T08:12:04;97664.47;;;9.17;100.00
64294;BME280;50636;45.596;5.258;2023-03-14T08:14:31;97660.19;;;9.23;100.00
64294;BME280;50636;45.596;5.258;2023-03-14T08:16:58;97673.28;;;9.23;100.00
64294;BME280;50636;45.596;5.258;2023-03-14T08:19:25;97668.03;;;9.23;100.00
64294;BME280;50636;45.596;5.258;2023-03-14T08:21:53;97697.28;;;9.20;100.00
64294;BME280;50636;45.596;5.258;2023-03-14T08:24:20;97705.50;;;9.24;100.00
64294;BME280;50636;45.596;5.258;2023-03-14T08:26:47;97699.81;;;9.27;100.00
64294;BME280;50636;45.596;5.258;2023-03-14T08:29:15;97733.72;;;9.22;100.00
64294;BME280;50636;45.596;5.258;2023-03-14T08:31:42;97744.53;;;9.25;100.00
64294;BME280;50636;45.596;5.258;2023-03-14T08:34:11;97732.47;;;9.24;100.00
64294;BME280;50636;45.596;5.258;2023-03-14T08:36:38;97748.13;;;9.31;100.00
64294;BME280;50636;45.596;5.258;2023-03-14T08:39:05;97758.09;;;9.40;100.00
64294;BME280;50636;45.596;5.258;2023-03-14T08:41:35;97768.88;;;9.51;100.00
64294;BME280;50636;45.596;5.258;2023-03-14T08:44:08;97769.50;;;9.71;100.00
64294;BME280;50636;45.596;5.258;2023-03-14T08:46:56;97785.88;;;9.85;100.00
64294;BME280;50636;45.596;5.258;2023-03-14T08:49:24;97795.66;;;9.96;100.00
64294;BME280;50636;45.596;5.258;2023-03-14T08:51:51;97808.25;;;10.06;100.00
64294;BME280;50636;45.596;5.258;2023-03-14T08:54:18;97825.00;;;10.24;100.00
64294;BME280;50636;45.596;5.258;2023-03-14T08:56:48;97832.16;;;10.35;100.00
64294;BME280;50636;45.596;5.258;2023-03-14T08:59:17;97848.91;;;10.34;100.00
64294;BME280;50636;45.596;5.258;2023-03-14T09:01:44;97850.44;;;10.42;100.00
64294;BME280;50636;45.596;5.258;2023-03-14T09:04:11;97854.97;;;10.53;100.00
64294;BME280;50636;45.596;5.258;2023-03-14T09:06:38;97857.28;;;10.61;100.00
64294;BME280;50636;45.596;5.258;2023-03-14T09:09:06;97867.41;;;10.57;100.00
64294;BME280;50636;45.596;5.258;2023-03-14T09:11:33;97860.13;;;10.59;100.00
64294;BME280;50636;45.596;5.258;2023-03-14T09:14:02;97885.41;;;10.54;100.00
64294;BME280;50636;45.596;5.258;2023-03-14T09:16:29;97886.56;;;10.58;100.00
64294;BME280;50636;45.596;5.258;2023-03-14T09:18:57;97890.72;;;10.66;100.00
64294;BME280;50636;45.596;5.258;2023-03-14T09:21:27;97889.16;;;10.76;100.00
64294;BME280;50636;45.596;5.258;2023-03-14T09:23:55;97911.84;;;10.89;100.00
64294;BME280;50636;45.596;5.258;2023-03-14T09:26:22;97915.75;;;10.98;100.00
64294;BME280;50636;45.596;5.258;2023-03-14T09:28:50;97929.59;;;11.06;100.00
64294;BME280;50636;45.596;5.258;2023-03-14T09:31:18;97929.56;;;11.24;100.00
64294;BME280;50636;45.596;5.258;2023-03-14T09:34:03;97923.06;;;11.27;100.00
64294;BME280;50636;45.596;5.258;2023-03-14T09:36:32;97939.16;;;11.30;100.00
64294;BME280;50636;45.596;5.258;2023-03-14T09:39:21;97946.88;;;11.44;98.95
64294;BME280;50636;45.596;5.258;2023-03-14T09:42:06;97957.09;;;11.64;97.66
64294;BME280;50636;45.596;5.258;2023-03-14T09:45:06;97971.72;;;11.90;96.97
64294;BME280;50636;45.596;5.258;2023-03-14T09:51:31;98006.97;;;12.48;95.02
64294;BME280;50636;45.596;5.258;2023-03-14T09:54:02;98000.22;;;12.64;90.53
64294;BME280;50636;45.596;5.258;2023-03-14T09:56:34;98006.16;;;12.71;88.76
64294;BME280;50636;45.596;5.258;2023-03-14T09:59:10;98013.69;;;12.91;88.69
64294;BME280;50636;45.596;5.258;2023-03-14T10:01:47;98014.25;;;12.93;85.74
64294;BME280;50636;45.596;5.258;2023-03-14T10:04:34;98023.53;;;12.84;85.63
64294;BME280;50636;45.596;5.258;2023-03-14T10:07:31;98052.41;;;12.67;84.37
64294;BME280;50636;45.596;5.258;2023-03-14T10:09:59;98064.28;;;12.57;84.73
64294;BME280;50636;45.596;5.258;2023-03-14T10:12:45;98079.72;;;12.30;82.37
64294;BME280;50636;45.596;5.258;2023-03-14T10:15:27;98105.63;;;11.85;82.20
64294;BME280;50636;45.596;5.258;2023-03-14T10:18:03;98099.13;;;11.38;81.93
64294;BME280;50636;45.596;5.258;2023-03-14T10:20:43;98125.66;;;11.12;85.94
64294;BME280;50636;45.596;5.258;2023-03-14T10:23:26;98127.06;;;11.14;88.39
64294;BME280;50636;45.596;5.258;2023-03-14T10:26:43;98142.75;;;11.21;90.03
64294;BME280;50636;45.596;5.258;2023-03-14T10:29:32;98139.63;;;11.49;88.91
64294;BME280;50636;45.596;5.258;2023-03-14T10:32:34;98142.53;;;11.78;89.52
64294;BME280;50636;45.596;5.258;2023-03-14T10:35:25;98154.19;;;12.31;88.55
64294;BME280;50636;45.596;5.258;2023-03-14T10:38:16;98155.97;;;12.61;88.36
64294;BME280;50636;45.596;5.258;2023-03-14T10:40:48;98162.97;;;12.67;85.44
64294;BME280;50636;45.596;5.258;2023-03-14T10:43:18;98170.66;;;12.68;86.06
64294;BME280;50636;45.596;5.258;2023-03-14T10:45:59;98179.03;;;12.77;84.67
64294;BME280;50636;45.596;5.258;2023-03-14T10:48:38;98169.06;;;12.79;85.99
64294;BME280;50636;45.596;5.258;2023-03-14T10:54:22;98179.75;;;13.31;85.37
64294;BME280;50636;45.596;5.258;2023-03-14T10:57:20;98191.75;;;13.74;84.15
64294;BME280;50636;45.596;5.258;2023-03-14T10:59:46;98192.50;;;13.98;84.50
64294;BME280;50636;45.596;5.258;2023-03-14T11:11:34;98203.00;;;14.39;80.68
64294;BME280;50636;45.596;5.258;2023-03-14T11:17:53;98204.44;;;14.92;82.12
64294;BME280;50636;45.596;5.258;2023-03-14T11:24:36;98213.56;;;15.35;79.28
64294;BME280;50636;45.596;5.258;2023-03-14T11:27:40;98195.72;;;15.26;78.25
64294;BME280;50636;45.596;5.258;2023-03-14T11:30:39;98198.38;;;15.48;79.93
64294;BME280;50636;45.596;5.258;2023-03-14T11:33:50;98191.38;;;15.75;78.84
64294;BME280;50636;45.596;5.258;2023-03-14T11:39:46;98212.78;;;15.74;76.68
64294;BME280;50636;45.596;5.258;2023-03-14T11:42:33;98210.13;;;15.74;75.86
64294;BME280;50636;45.596;5.258;2023-03-14T11:45:01;98225.03;;;15.80;76.16
64294;BME280;50636;45.596;5.258;2023-03-14T11:47:37;98219.66;;;15.75;74.90
64294;BME280;50636;45.596;5.258;2023-03-14T11:50:26;98218.75;;;16.08;75.80
64294;BME280;50636;45.596;5.258;2023-03-14T11:53:08;98219.66;;;16.19;71.08
64294;BME280;50636;45.596;5.258;2023-03-14T11:55:42;98221.63;;;16.07;72.94
64294;BME280;50636;45.596;5.258;2023-03-14T11:58:19;98235.66;;;16.07;71.45
64294;BME280;50636;45.596;5.258;2023-03-14T12:00:52;98238.63;;;15.89;71.18
64294;BME280;50636;45.596;5.258;2023-03-14T12:03:43;98235.09;;;16.05;74.95
64294;BME280;50636;45.596;5.258;2023-03-14T12:06:49;98230.81;;;17.03;76.70
64294;BME280;50636;45.596;5.258;2023-03-14T12:09:20;98221.06;;;18.09;68.83
64294;BME280;50636;45.596;5.258;2023-03-14T12:12:10;98222.84;;;18.97;72.89
64294;BME280;50636;45.596;5.258;2023-03-14T12:15:03;98203.09;;;20.64;69.03
64294;BME280;50636;45.596;5.258;2023-03-14T12:21:12;98199.09;;;21.01;59.69
64294;BME280;50636;45.596;5.258;2023-03-14T12:24:16;98199.69;;;20.09;55.94
64294;BME280;50636;45.596;5.258;2023-03-14T12:27:13;98203.38;;;19.27;51.48
64294;BME280;50636;45.596;5.258;2023-03-14T12:35:50;98201.19;;;21.04;46.58
64294;BME280;50636;45.596;5.258;2023-03-14T12:41:28;98189.56;;;20.90;45.13
64294;BME280;50636;45.596;5.258;2023-03-14T12:49:53;98192.28;;;20.50;42.98
64294;BME280;50636;45.596;5.258;2023-03-14T12:52:51;98194.44;;;20.43;44.06
64294;BME280;50636;45.596;5.258;2023-03-14T12:58:04;98178.22;;;21.32;41.39
64294;BME280;50636;45.596;5.258;2023-03-14T13:00:38;98177.78;;;20.67;41.31
64294;BME280;50636;45.596;5.258;2023-03-14T13:03:43;98184.97;;;19.72;41.77
64294;BME280;50636;45.596;5.258;2023-03-14T13:12:07;98180.13;;;17.94;45.05
64294;BME280;50636;45.596;5.258;2023-03-14T13:14:43;98190.22;;;17.40;50.93
64294;BME280;50636;45.596;5.258;2023-03-14T13:17:40;98206.16;;;16.75;55.81
64294;BME280;50636;45.596;5.258;2023-03-14T13:20:38;98212.50;;;15.97;58.53
64294;BME280;50636;45.596;5.258;2023-03-14T13:23:35;98222.69;;;15.11;63.22
64294;BME280;50636;45.596;5.258;2023-03-14T13:26:10;98221.03;;;14.30;68.50
64294;BME280;50636;45.596;5.258;2023-03-14T13:28:37;98225.94;;;13.57;72.64
64294;BME280;50636;45.596;5.258;2023-03-14T13:31:05;98220.72;;;13.04;76.29
64294;BME280;50636;45.596;5.258;2023-03-14T13:33:33;98214.22;;;13.18;83.11
64294;BME280;50636;45.596;5.258;2023-03-14T13:36:03;98210.84;;;13.93;90.20
64294;BME280;50636;45.596;5.258;2023-03-14T13:38:35;98197.16;;;14.83;95.46
64294;BME280;50636;45.596;5.258;2023-03-14T13:41:06;98197.34;;;15.49;94.26
64294;BME280;50636;45.596;5.258;2023-03-14T13:43:41;98186.56;;;15.72;92.57
64294;BME280;50636;45.596;5.258;2023-03-14T13:46:29;98174.34;;;15.71;90.34
64294;BME280;50636;45.596;5.258;2023-03-14T13:49:00;98183.94;;;15.55;86.28
64294;BME280;50636;45.596;5.258;2023-03-14T13:51:31;98222.28;;;15.19;87.34
64294;BME280;50636;45.596;5.258;2023-03-14T13:54:15;98262.16;;;14.55;81.23
64294;BME280;50636;45.596;5.258;2023-03-14T13:56:45;98272.25;;;12.99;73.74
64294;BME280;50636;45.596;5.258;2023-03-14T13:59:27;98256.00;;;11.75;78.69
64294;BME280;50636;45.596;5.258;2023-03-14T14:01:56;98258.75;;;11.18;81.89
64294;BME280;50636;45.596;5.258;2023-03-14T14:04:27;98251.81;;;10.98;84.70
64294;BME280;50636;45.596;5.258;2023-03-14T14:09:55;98239.13;;;11.46;88.00
64294;BME280;50636;45.596;5.258;2023-03-14T14:12:46;98227.16;;;11.87;83.96
64294;BME280;50636;45.596;5.258;2023-03-14T14:15:31;98238.56;;;12.17;82.49
64294;BME280;50636;45.596;5.258;2023-03-14T14:18:30;98245.31;;;12.74;84.81
64294;BME280;50636;45.596;5.258;2023-03-14T14:21:17;98240.50;;;13.36;84.19
64294;BME280;50636;45.596;5.258;2023-03-14T14:23:44;98245.84;;;13.89;86.37
64294;BME280;50636;45.596;5.258;2023-03-14T14:26:31;98242.78;;;14.21;81.50
64294;BME280;50636;45.596;5.258;2023-03-14T14:29:16;98252.34;;;14.38;79.03